Zapata, TX

09:34 PM CDT am 02. August 2015 (GMT -0500)
Zapata | | Change Station
CLOSE
Current Station
Flughafen
Location: Zapata,
Höhe: 423 ft
Wetterstationen in der Umgebung

Höhe 423 ft 26.97 °N, 99.25 °W | Updated 19 minutes ago

Heiter
Heiter
90 °F
gefühlte 93 °F
N
13
Wind Wechselnd Wind aus Südost
Gusts 18 mph

Heute
Max. -- | schwach -- °F
--% Regenrisiko
Gestern
Max. -- | schwach -- °F
Precip. -- inch
7:01 AM 8:24 PM
Drittes Viertel, 90% visible
Druck 29.82 inch
Sichtweite 10.0 Meilen
Wolken Heiter
Hitzeindex 93 °F
Taupunkt 68 °F
Feuchtigkeit 48%
Regen 0.00 inch
Schneehöhe Nicht verfügbar..
UV 0 von 12
Pollen 7.50 von 12
Luftqualität Nicht verfügbar..
Flu Activity Nicht verfügbar..
METAR KAPY 030215Z AUTO 13011G16KT 10SM CLR 32/20 A2982 RMK AO2 T03200199

More Conditions Fewer Conditions

Druck 29.82 inch
Sichtweite 10.0 Meilen
Wolken Heiter
Hitzeindex 93 °F
Taupunkt 68 °F
Feuchtigkeit 48%
Regen 0.00 inch
Schneehöhe Nicht verfügbar..
UV 0 von 12
Pollen 7.50 von 12
Luftqualität Nicht verfügbar..
Flu Activity Nicht verfügbar..
METAR KAPY 030215Z AUTO 13011G16KT 10SM CLR 32/20 A2982 RMK AO2 T03200199

More Conditions Fewer Conditions

10-Day Weather Forecast

×

Almanac

Astronomie

Aug. 02, 2015 Aufgang Untergang
Genaue Zeit
Bürgerliche Dämmerung
Nautische Dämmerung
Astronomische Dämmerung
Mond
Länge des sichtbaren Lichts
Tageslänge
Tomorrow will be .
, % of the Moon is Illuminated

Heutige Rekorde

State Highs State Lows

Community

WunderPhotos

Upload Photos

1,843,524 Fotos hochgeladen!

WunderBlogs® & News

Nearby

Luftqualität

  Luftqualität LQ Index Schadstoff
Not available.

Schneehöhe

Station Depth Höhe

Erdbebenaktivität

Stadt Distance Mag. Time & Date
Minimum magnitude displayed is 2.5.

küstennahe Wassertemperaturen

Ort Temperatur

Stations

Wetterstationen in der Umgebung

Stationsstandort Temp. Windchill Taupunkt Feuchtigkeit Wind Precip. Höhe Aktualisiert Art